Time;durP1;ratioP1;P1;durP2;ratioP2;P2;SDS_P1;SDS_P2;PMS_P1;PMS_P2;Temp;Humidity;BMP_temperature;BMP_pressure;BME280_temperature;BME280_humidity;BME280_pressure;Samples;Min_cycle;Max_cycle;Signal;HPM_P1;HPM_P2
2023/07/14 00:00:41;;;;;;;7.97;5.72;;;;;;;18.68;100.00;101670.28;5267099;28;20154;-67
2023/07/14 00:03:16;;;;;;;10.48;6.30;;;;;;;18.70;100.00;101673.63;5258717;28;20036;-66
2023/07/14 00:05:48;;;;;;;7.35;5.45;;;;;;;18.64;100.00;101668.97;5256705;28;20029;-66
2023/07/14 00:08:19;;;;;;;6.85;5.13;;;;;;;18.64;100.00;101665.47;5261701;28;20466;-66
2023/07/14 00:10:50;;;;;;;6.47;5.57;;;;;;;18.62;100.00;101670.94;5263059;28;20032;-67
2023/07/14 00:13:22;;;;;;;7.90;5.53;;;;;;;18.57;100.00;101665.28;5269761;28;20075;-64
2023/07/14 00:15:53;;;;;;;6.88;6.13;;;;;;;18.46;100.00;101650.50;5260605;28;20082;-68
2023/07/14 00:18:26;;;;;;;6.77;5.03;;;;;;;18.48;100.00;101664.41;5261462;28;20025;-67
2023/07/14 00:20:57;;;;;;;6.03;4.97;;;;;;;18.51;100.00;101659.81;5260313;28;20036;-67
2023/07/14 00:23:28;;;;;;;5.68;5.07;;;;;;;18.54;100.00;101655.00;5264761;28;20024;-64
2023/07/14 00:26:00;;;;;;;6.50;5.07;;;;;;;18.53;100.00;101650.69;5264157;28;20043;-67
2023/07/14 00:28:31;;;;;;;7.65;5.00;;;;;;;18.44;100.00;101660.44;5258872;28;20446;-66
2023/07/14 00:31:03;;;;;;;6.90;4.88;;;;;;;18.46;100.00;101658.47;5263390;28;20417;-67
2023/07/14 00:33:34;;;;;;;5.88;5.28;;;;;;;18.51;100.00;101651.84;5265340;28;20068;-66
2023/07/14 00:36:06;;;;;;;8.33;5.50;;;;;;;18.47;100.00;101652.16;5260849;28;20062;-67
2023/07/14 00:38:37;;;;;;;6.97;5.40;;;;;;;18.48;100.00;101658.28;5258430;28;20074;-66
2023/07/14 00:41:23;;;;;;;7.13;5.88;;;;;;;18.66;100.00;101653.69;5263669;28;20056;-66
2023/07/14 00:43:54;;;;;;;6.05;5.45;;;;;;;18.44;100.00;101649.00;5266540;28;20056;-66
2023/07/14 00:46:27;;;;;;;8.77;6.10;;;;;;;18.48;100.00;101645.03;5263827;28;20110;-67
2023/07/14 00:49:06;;;;;;;7.45;6.32;;;;;;;18.56;100.00;101645.06;5261724;28;20025;-66
2023/07/14 00:51:38;;;;;;;5.97;5.15;;;;;;;18.40;100.00;101639.69;5263942;28;20031;-66
2023/07/14 00:54:25;;;;;;;8.43;5.88;;;;;;;18.65;100.00;101644.06;5263761;28;20551;-66
2023/07/14 00:56:57;;;;;;;8.25;5.22;;;;;;;18.41;100.00;101638.69;5268342;28;20039;-67
2023/07/14 00:59:33;;;;;;;6.45;5.72;;;;;;;18.58;100.00;101650.19;5255139;28;20111;-67
2023/07/14 01:02:15;;;;;;;11.38;6.20;;;;;;;18.63;100.00;101638.09;5257464;28;20029;-66
2023/07/14 01:05:03;;;;;;;7.50;6.03;;;;;;;18.66;100.00;101645.72;5263673;28;20081;-66
2023/07/14 01:07:41;;;;;;;7.40;5.45;;;;;;;18.50;100.00;101645.72;5261986;28;20123;-66
2023/07/14 01:10:21;;;;;;;6.63;5.50;;;;;;;18.52;100.00;101649.00;5256250;28;20032;-65
2023/07/14 01:13:00;;;;;;;7.45;5.68;;;;;;;18.52;100.00;101646.34;5266195;28;20524;-65
2023/07/14 01:15:32;;;;;;;8.75;5.80;;;;;;;18.38;100.00;101631.91;5264592;28;20429;-67
2023/07/14 01:18:04;;;;;;;7.57;5.60;;;;;;;18.50;100.00;101644.88;5261133;28;20029;-67
2023/07/14 01:20:38;;;;;;;6.90;5.75;;;;;;;18.50;100.00;101645.72;5260752;28;20473;-68
2023/07/14 01:23:49;;;;;;;6.38;5.20;;;;;;;18.78;100.00;101635.66;5261858;28;20024;-66
2023/07/14 01:26:29;;;;;;;6.32;5.68;;;;;;;18.62;100.00;101635.59;5252782;28;20040;-66
2023/07/14 01:29:03;;;;;;;6.90;6.20;;;;;;;18.51;100.00;101630.59;5261929;28;20036;-67
2023/07/14 01:31:35;;;;;;;7.93;5.90;;;;;;;18.44;100.00;101633.91;5260599;28;20024;-67
2023/07/14 01:34:07;;;;;;;6.28;5.68;;;;;;;18.44;100.00;101633.91;5261192;28;20039;-66
2023/07/14 01:36:39;;;;;;;7.43;6.55;;;;;;;18.52;100.00;101625.13;5259171;28;20020;-65
2023/07/14 01:39:11;;;;;;;6.43;5.68;;;;;;;18.52;100.00;101621.66;5258024;28;20020;-67
2023/07/14 01:41:43;;;;;;;9.02;6.45;;;;;;;18.52;100.00;101626.97;5257234;28;20047;-67
2023/07/14 01:44:19;;;;;;;7.43;5.70;;;;;;;18.65;100.00;101616.72;5263428;28;20028;-67
2023/07/14 01:46:51;;;;;;;9.45;6.85;;;;;;;18.46;100.00;101613.34;5258468;28;20135;-67
2023/07/14 01:49:34;;;;;;;7.47;6.45;;;;;;;18.48;100.00;101616.66;5261495;28;20032;-67
2023/07/14 01:52:12;;;;;;;9.00;6.78;;;;;;;18.61;100.00;101610.91;5263338;28;20146;-64
2023/07/14 01:54:51;;;;;;;6.85;6.22;;;;;;;18.53;100.00;101610.88;5263172;28;20578;-66
2023/07/14 01:57:27;;;;;;;8.90;6.68;;;;;;;18.37;100.00;101597.56;5266368;28;20032;-66
2023/07/14 02:00:04;;;;;;;7.53;6.65;;;;;;;18.38;100.00;101616.00;5259748;28;20036;-69
2023/07/14 02:02:37;;;;;;;10.90;6.70;;;;;;;18.34;100.00;101613.84;5262589;28;20036;-70
2023/07/14 02:05:24;;;;;;;7.18;6.05;;;;;;;18.51;100.00;101612.88;5259279;28;20028;-64
2023/07/14 02:07:57;;;;;;;7.72;6.32;;;;;;;18.23;100.00;101613.13;5260121;28;20025;-66
2023/07/14 02:10:30;;;;;;;8.65;6.93;;;;;;;18.20;100.00;101610.81;5261052;28;20036;-66
2023/07/14 02:13:02;;;;;;;7.47;6.63;;;;;;;18.18;100.00;101612.81;5258447;28;20064;-67
2023/07/14 02:15:34;;;;;;;7.22;6.53;;;;;;;18.17;100.00;101618.25;5262585;28;20103;-64
2023/07/14 02:18:05;;;;;;;7.15;6.45;;;;;;;18.20;100.00;101610.81;5261926;28;20119;-66
2023/07/14 02:20:39;;;;;;;8.60;6.40;;;;;;;18.20;100.00;101602.84;5261750;28;20456;-67
2023/07/14 02:23:14;;;;;;;9.15;6.95;;;;;;;18.13;100.00;101601.84;5258141;28;20025;-67
2023/07/14 02:25:58;;;;;;;9.60;6.80;;;;;;;18.15;100.00;101599.84;5260064;28;20025;-67
2023/07/14 02:28:29;;;;;;;8.32;5.93;;;;;;;18.01;100.00;101600.47;5261611;28;20089;-67
2023/07/14 02:31:12;;;;;;;8.50;7.60;;;;;;;18.14;100.00;101600.84;5265132;28;20038;-65
2023/07/14 02:33:48;;;;;;;8.77;6.40;;;;;;;18.07;100.00;101598.97;5267566;28;20035;-66
2023/07/14 02:36:26;;;;;;;7.10;6.32;;;;;;;17.94;100.00;101600.28;5262700;28;20542;-67
2023/07/14 02:38:57;;;;;;;7.57;6.47;;;;;;;17.86;100.00;101596.75;5261927;28;20025;-65
2023/07/14 02:41:36;;;;;;;9.70;6.38;;;;;;;17.93;100.00;101597.78;5263446;28;20024;-66
2023/07/14 02:44:15;;;;;;;8.77;6.45;;;;;;;17.84;100.00;101598.72;5271109;28;20055;-66
2023/07/14 02:46:56;;;;;;;8.07;7.07;;;;;;;17.86;100.00;101602.91;5260076;28;20027;-66
2023/07/14 02:49:27;;;;;;;7.47;6.60;;;;;;;17.70;100.00;101603.63;5259130;28;20057;-66
2023/07/14 02:51:58;;;;;;;8.60;6.60;;;;;;;17.71;100.00;101605.28;5268572;28;20114;-67
2023/07/14 02:54:29;;;;;;;7.97;7.00;;;;;;;17.79;100.00;101595.75;5260457;28;20024;-66
2023/07/14 02:57:03;;;;;;;7.55;6.75;;;;;;;17.84;100.00;101596.09;5262691;28;20021;-66
2023/07/14 02:59:34;;;;;;;7.50;6.18;;;;;;;17.74;100.00;101591.72;5263972;28;20489;-66
2023/07/14 03:02:05;;;;;;;7.57;6.88;;;;;;;17.81;100.00;101599.06;5265909;28;20036;-67
2023/07/14 03:04:36;;;;;;;9.38;7.55;;;;;;;17.80;100.00;101592.91;5263850;28;20033;-66
2023/07/14 03:07:08;;;;;;;6.53;5.90;;;;;;;17.84;100.00;101591.63;5268936;28;20496;-67
2023/07/14 03:09:39;;;;;;;8.13;6.30;;;;;;;17.81;100.00;101602.56;5263607;28;20497;-66
2023/07/14 03:12:10;;;;;;;8.23;6.10;;;;;;;17.84;100.00;101596.94;5267995;28;20024;-66
2023/07/14 03:14:42;;;;;;;9.38;6.45;;;;;;;17.93;100.00;101597.78;5274167;28;20049;-66
2023/07/14 03:17:13;;;;;;;7.43;6.38;;;;;;;17.87;100.00;101579.88;5269375;28;20407;-66
2023/07/14 03:19:44;;;;;;;7.07;6.38;;;;;;;17.96;100.00;101585.03;5261932;28;20416;-66
2023/07/14 03:22:16;;;;;;;6.90;6.20;;;;;;;17.89;100.00;101585.84;5264018;28;20078;-66
2023/07/14 03:24:47;;;;;;;6.97;5.95;;;;;;;17.92;100.00;101586.34;5269838;28;20039;-67
2023/07/14 03:27:18;;;;;;;8.88;6.68;;;;;;;17.93;100.00;101585.38;5264123;28;20600;-65
2023/07/14 03:29:49;;;;;;;7.18;6.03;;;;;;;17.91;100.00;101583.84;5269838;28;20562;-66
2023/07/14 03:32:21;;;;;;;6.55;5.93;;;;;;;17.93;100.00;101580.06;5263130;28;20504;-65
2023/07/14 03:34:52;;;;;;;5.97;5.30;;;;;;;17.92;100.00;101578.41;5264032;28;20482;-65
2023/07/14 03:37:23;;;;;;;7.60;5.55;;;;;;;17.92;100.00;101582.88;5265219;28;20443;-66
2023/07/14 03:39:54;;;;;;;9.23;5.43;;;;;;;17.94;100.00;101578.25;5265384;28;20025;-66
2023/07/14 03:42:26;;;;;;;6.25;5.65;;;;;;;17.90;100.00;101572.41;5264651;28;20020;-66
2023/07/14 03:44:57;;;;;;;7.55;5.85;;;;;;;17.91;100.00;101568.78;5262928;28;20061;-66
2023/07/14 03:47:28;;;;;;;8.38;5.80;;;;;;;17.92;100.00;101566.97;5266468;28;20019;-66
2023/07/14 03:49:59;;;;;;;7.97;5.07;;;;;;;17.93;100.00;101568.63;5262829;28;20081;-66
2023/07/14 03:52:31;;;;;;;6.22;5.38;;;;;;;17.89;100.00;101569.94;5262956;28;20024;-66
2023/07/14 03:55:02;;;;;;;6.28;4.85;;;;;;;17.92;100.00;101561.69;5266244;28;20024;-68
2023/07/14 03:57:35;;;;;;;8.10;4.63;;;;;;;17.82;100.00;101566.28;5261819;28;20033;-69
2023/07/14 04:00:16;;;;;;;5.35;4.78;;;;;;;17.78;100.00;101570.22;5271365;28;20020;-66
2023/07/14 04:02:47;;;;;;;8.45;4.35;;;;;;;17.75;100.00;101561.59;5263536;28;20036;-66
2023/07/14 04:05:18;;;;;;;5.13;4.35;;;;;;;17.78;100.00;101559.63;5260352;28;20094;-66
2023/07/14 04:07:50;;;;;;;5.85;4.15;;;;;;;17.73;100.00;101552.97;5258467;28;20038;-66
2023/07/14 04:10:22;;;;;;;5.77;4.63;;;;;;;17.71;100.00;101562.88;5267522;28;20033;-66
2023/07/14 04:12:53;;;;;;;14.93;5.38;;;;;;;17.74;100.00;101564.38;5263019;28;20037;-66
2023/07/14 04:15:24;;;;;;;6.97;4.63;;;;;;;17.75;100.00;101558.13;5264032;28;20452;-66
2023/07/14 04:17:56;;;;;;;7.07;4.20;;;;;;;17.74;100.00;101565.22;5263297;28;20803;-66
2023/07/14 04:20:28;;;;;;;5.78;3.88;;;;;;;17.73;100.00;101555.59;5266232;28;20031;-67
2023/07/14 04:22:59;;;;;;;6.03;4.50;;;;;;;17.74;100.00;101559.09;5265314;28;20071;-67
2023/07/14 04:25:33;;;;;;;7.18;4.25;;;;;;;17.87;100.00;101563.97;5262825;28;20028;-67
2023/07/14 04:28:04;;;;;;;7.40;4.63;;;;;;;17.75;100.00;101561.59;5268855;28;20432;-67
2023/07/14 04:30:36;;;;;;;9.48;4.38;;;;;;;17.77;100.00;101558.81;5258380;28;20020;-67
2023/07/14 04:33:07;;;;;;;5.47;4.00;;;;;;;17.81;100.00;101554.00;5261712;28;20028;-67
2023/07/14 04:35:39;;;;;;;6.55;4.47;;;;;;;17.82;100.00;101556.50;5261980;28;20501;-67
2023/07/14 04:38:10;;;;;;;7.18;4.13;;;;;;;17.82;100.00;101558.31;5260737;28;20021;-69
2023/07/14 04:40:41;;;;;;;7.32;4.03;;;;;;;17.85;100.00;101556.19;5260128;28;20037;-68
2023/07/14 04:43:14;;;;;;;4.45;4.05;;;;;;;17.82;100.00;101556.50;5254371;28;20059;-68
2023/07/14 04:45:46;;;;;;;7.57;4.65;;;;;;;17.81;100.00;101556.66;5262113;28;20108;-67
2023/07/14 04:48:22;;;;;;;7.15;4.05;;;;;;;17.81;100.00;101561.97;5267060;28;20107;-67
2023/07/14 04:50:53;;;;;;;6.78;4.07;;;;;;;17.74;100.00;101554.59;5257312;28;20103;-67
2023/07/14 04:53:24;;;;;;;7.78;4.47;;;;;;;17.73;100.00;101563.56;5258224;28;20023;-68
2023/07/14 04:55:55;;;;;;;5.68;3.78;;;;;;;17.81;100.00;101560.13;5259743;28;20025;-67
2023/07/14 04:58:27;;;;;;;5.70;3.97;;;;;;;17.84;100.00;101564.28;5265250;28;20024;-67
2023/07/14 05:00:58;;;;;;;7.75;4.57;;;;;;;17.78;100.00;101557.81;5262604;28;20028;-67
2023/07/14 05:03:29;;;;;;;4.93;4.03;;;;;;;17.78;100.00;101556.97;5255959;28;20024;-67
2023/07/14 05:06:01;;;;;;;8.98;4.10;;;;;;;17.69;100.00;101569.31;5265170;28;20037;-67
2023/07/14 05:08:32;;;;;;;8.55;4.70;;;;;;;17.72;100.00;101561.88;5244282;28;20028;-67
2023/07/14 05:11:04;;;;;;;6.00;4.45;;;;;;;17.76;100.00;101557.13;5264693;28;20028;-67
2023/07/14 05:13:35;;;;;;;6.18;4.60;;;;;;;17.82;100.00;101558.31;5269790;28;20119;-67
2023/07/14 05:16:06;;;;;;;7.53;4.68;;;;;;;17.81;100.00;101556.66;5255871;28;20379;-67
2023/07/14 05:18:38;;;;;;;6.22;4.75;;;;;;;17.78;100.00;101541.06;5267173;28;20099;-68
2023/07/14 05:21:09;;;;;;;4.95;4.45;;;;;;;17.85;100.00;101545.56;5261037;28;20033;-67
2023/07/14 05:23:40;;;;;;;6.13;4.38;;;;;;;17.98;100.00;101550.41;5268737;28;20044;-68
2023/07/14 05:26:12;;;;;;;6.55;4.45;;;;;;;18.03;100.00;101547.28;5265896;28;20027;-68
2023/07/14 05:28:43;;;;;;;6.80;4.28;;;;;;;18.11;100.00;101549.97;5264627;28;20024;-68
2023/07/14 05:31:15;;;;;;;6.88;4.28;;;;;;;18.08;100.00;101553.75;5257521;28;20683;-68
2023/07/14 05:33:46;;;;;;;6.28;4.57;;;;;;;18.14;100.00;101553.09;5258857;28;20424;-66
2023/07/14 05:36:18;;;;;;;7.07;4.28;;;;;;;18.21;100.00;101558.59;5272023;28;20017;-68
2023/07/14 05:38:49;;;;;;;5.97;4.18;;;;;;;18.28;100.00;101550.81;5259926;28;20084;-68
2023/07/14 05:41:20;;;;;;;5.78;3.92;;;;;;;18.28;100.00;101553.47;5262843;28;20113;-68
2023/07/14 05:43:52;;;;;;;7.22;3.95;;;;;;;18.33;100.00;101551.97;5270269;28;20037;-67
2023/07/14 05:46:23;;;;;;;7.07;4.30;;;;;;;18.31;100.00;101534.56;5272720;28;20094;-67
2023/07/14 05:48:54;;;;;;;8.65;4.53;;;;;;;18.32;100.00;101541.53;5264950;28;20395;-68
2023/07/14 05:51:26;;;;;;;9.50;4.80;;;;;;;18.39;100.00;101537.22;5262327;28;20467;-67
2023/07/14 05:53:57;;;;;;;6.87;3.90;;;;;;;18.44;100.00;101545.53;5270509;28;20608;-68
2023/07/14 05:56:28;;;;;;;6.07;3.80;;;;;;;18.54;100.00;101550.69;5268078;28;20025;-67
2023/07/14 05:59:00;;;;;;;5.93;3.60;;;;;;;18.60;100.00;101542.91;5268044;28;20311;-67
2023/07/14 06:01:31;;;;;;;6.93;3.95;;;;;;;18.57;100.00;101534.44;5271578;28;20379;-67
2023/07/14 06:04:02;;;;;;;4.00;3.22;;;;;;;18.62;100.00;101535.59;5276676;28;20029;-68
2023/07/14 06:06:33;;;;;;;8.27;3.60;;;;;;;18.68;100.00;101537.59;5272984;28;20043;-67
2023/07/14 06:09:05;;;;;;;7.22;3.92;;;;;;;18.80;100.00;101550.56;5271060;28;20035;-68
2023/07/14 06:11:36;;;;;;;6.03;3.60;;;;;;;18.77;100.00;101549.06;5268824;28;20040;-67
2023/07/14 06:14:08;;;;;;;5.53;3.70;;;;;;;18.82;100.00;101549.38;5264766;28;20049;-67
2023/07/14 06:16:39;;;;;;;9.67;3.70;;;;;;;18.89;100.00;101545.06;5273621;28;20025;-68
2023/07/14 06:19:11;;;;;;;7.03;3.80;;;;;;;18.85;100.00;101538.41;5272064;28;20393;-67
2023/07/14 06:21:42;;;;;;;5.38;3.40;;;;;;;18.87;100.00;101544.41;5273100;28;20065;-68
2023/07/14 06:24:14;;;;;;;6.57;4.13;;;;;;;18.95;100.00;101540.91;5281897;28;20111;-68
2023/07/14 06:26:45;;;;;;;8.87;3.60;;;;;;;19.03;100.00;101540.91;5271338;28;20033;-68
2023/07/14 06:29:17;;;;;;;4.63;3.47;;;;;;;19.13;100.00;101538.03;5260181;28;20022;-67
2023/07/14 06:31:48;;;;;;;9.13;4.38;;;;;;;19.18;100.00;101551.66;5270272;28;20028;-68
2023/07/14 06:34:19;;;;;;;5.43;3.70;;;;;;;19.25;100.00;101546.50;5276668;28;20457;-67
2023/07/14 06:36:51;;;;;;;8.43;3.75;;;;;;;19.31;100.00;101548.47;5268355;28;20041;-68
2023/07/14 06:39:22;;;;;;;7.67;3.57;;;;;;;19.37;100.00;101550.47;5268100;28;20370;-67
2023/07/14 06:41:53;;;;;;;6.73;4.33;;;;;;;19.41;100.00;101535.81;5272983;28;20032;-67
2023/07/14 06:44:25;;;;;;;5.90;3.60;;;;;;;19.57;100.00;101537.59;5271647;28;20039;-67
2023/07/14 06:46:56;;;;;;;4.78;3.40;;;;;;;19.59;100.00;101525.78;5274741;28;20047;-68
2023/07/14 06:49:27;;;;;;;7.03;3.58;;;;;;;19.64;100.00;101531.44;5269564;28;20043;-67
2023/07/14 06:51:59;;;;;;;3.95;3.30;;;;;;;20.00;100.00;101546.91;5270999;28;20149;-68
2023/07/14 06:54:30;;;;;;;5.90;3.20;;;;;;;20.18;100.00;101538.63;5266619;28;20237;-68
2023/07/14 06:57:01;;;;;;;6.10;4.03;;;;;;;20.35;100.00;101534.03;5264503;28;20450;-68
2023/07/14 06:59:33;;;;;;;8.63;3.60;;;;;;;20.25;98.11;101528.13;5268327;28;20032;-69
2023/07/14 07:02:05;;;;;;;4.83;2.80;;;;;;;20.39;100.00;101522.03;5269545;28;20112;-68
2023/07/14 07:04:36;;;;;;;9.18;3.45;;;;;;;20.35;94.79;101529.53;5266804;28;20025;-67
2023/07/14 07:07:08;;;;;;;4.67;2.87;;;;;;;20.34;95.22;101524.38;5267936;28;20032;-68
2023/07/14 07:09:39;;;;;;;6.00;3.13;;;;;;;20.37;96.16;101529.34;5272550;28;20032;-67
2023/07/14 07:12:10;;;;;;;7.50;3.40;;;;;;;20.41;94.63;101525.31;5247568;28;20037;-69
2023/07/14 07:14:41;;;;;;;5.30;3.20;;;;;;;20.41;94.61;101518.16;5261208;28;21171;-68
2023/07/14 07:17:13;;;;;;;6.23;3.27;;;;;;;20.39;93.66;101522.84;5266492;28;20580;-67
2023/07/14 07:19:44;;;;;;;6.47;3.47;;;;;;;20.57;94.17;101513.75;5265649;28;20679;-68
2023/07/14 07:22:15;;;;;;;6.97;3.40;;;;;;;20.44;90.93;101495.69;5266780;28;20589;-68
2023/07/14 07:24:47;;;;;;;4.63;2.87;;;;;;;20.65;91.65;101503.06;5268416;28;20463;-68
2023/07/14 07:27:18;;;;;;;5.03;2.70;;;;;;;20.62;88.85;101509.56;5263371;28;20124;-68
2023/07/14 07:29:50;;;;;;;3.87;2.70;;;;;;;20.64;89.11;101510.19;5264652;28;20028;-67
2023/07/14 07:32:21;;;;;;;5.40;2.85;;;;;;;20.50;87.46;101512.84;5265617;28;20078;-68
2023/07/14 07:34:53;;;;;;;5.83;2.27;;;;;;;20.50;88.21;101511.00;5264749;28;20388;-68
2023/07/14 07:37:31;;;;;;;4.40;2.60;;;;;;;20.68;89.02;101512.50;5264464;28;20601;-67
2023/07/14 07:40:04;;;;;;;4.75;2.40;;;;;;;20.61;85.19;101505.25;5267331;28;20520;-67
2023/07/14 07:42:35;;;;;;;6.40;3.00;;;;;;;20.74;83.51;101496.63;5262920;28;20033;-66
2023/07/14 07:45:08;;;;;;;5.83;2.57;;;;;;;20.82;83.20;101503.72;5267610;28;20508;-67
2023/07/14 07:47:39;;;;;;;4.35;2.38;;;;;;;20.82;81.59;101501.06;5266502;28;20028;-66
2023/07/14 07:50:10;;;;;;;5.10;2.50;;;;;;;20.95;82.42;101501.25;5269404;28;20032;-66
2023/07/14 07:52:41;;;;;;;6.60;2.83;;;;;;;20.97;80.82;101499.22;5266835;28;20036;-66
2023/07/14 07:55:13;;;;;;;5.77;2.67;;;;;;;21.09;80.46;101500.41;5267470;28;20028;-65
2023/07/14 07:57:47;;;;;;;4.00;2.10;;;;;;;21.19;78.47;101502.81;5267813;28;20090;-66
2023/07/14 08:00:19;;;;;;;4.30;2.13;;;;;;;21.04;76.82;101494.00;5242861;28;20033;-67
2023/07/14 08:02:50;;;;;;;6.15;2.60;;;;;;;21.21;76.14;101486.63;5266630;28;20025;-66
2023/07/14 08:05:24;;;;;;;4.90;2.20;;;;;;;21.26;75.83;101478.94;5264350;28;20086;-66
2023/07/14 08:07:55;;;;;;;4.75;2.20;;;;;;;21.21;76.11;101483.97;5264424;28;20099;-67
2023/07/14 08:10:26;;;;;;;4.13;1.93;;;;;;;21.35;71.00;101480.50;5269952;28;20119;-66
2023/07/14 08:12:58;;;;;;;3.93;2.10;;;;;;;21.33;72.38;101486.03;5261967;28;20036;-66
2023/07/14 08:15:29;;;;;;;5.63;2.50;;;;;;;21.31;72.14;101489.88;5259997;28;20685;-66
2023/07/14 08:18:01;;;;;;;3.70;2.10;;;;;;;21.36;71.70;101480.31;5259203;28;20024;-67
2023/07/14 08:20:34;;;;;;;6.13;2.10;;;;;;;21.28;70.77;101480.38;5259148;28;20033;-66
2023/07/14 08:23:10;;;;;;;6.20;2.50;;;;;;;21.34;72.01;101478.88;5262210;28;20036;-66
2023/07/14 08:25:41;;;;;;;4.28;2.05;;;;;;;21.45;70.23;101481.06;5260860;28;20130;-67
2023/07/14 08:28:13;;;;;;;6.00;2.67;;;;;;;21.47;70.66;101481.69;5261759;28;20037;-66
2023/07/14 08:30:47;;;;;;;3.47;2.23;;;;;;;21.51;68.36;101482.16;5266890;28;20437;-66
2023/07/14 08:33:20;;;;;;;5.40;2.20;;;;;;;21.57;68.42;101476.06;5257980;28;20033;-67
2023/07/14 08:35:52;;;;;;;3.67;2.25;;;;;;;21.54;67.52;101479.94;5258121;28;20024;-68
2023/07/14 08:38:24;;;;;;;;;;;;;;;22.47;67.28;101486.25;5261918;28;20039;-66
2023/07/14 08:41:04;;;;;;;5.07;2.27;;;;;;;22.08;67.57;101490.16;5262135;28;19912;-68
2023/07/14 08:44:01;;;;;;;3.45;2.05;;;;;;;22.28;66.84;101478.91;5259709;28;20295;-69
2023/07/14 08:46:50;;;;;;;4.78;1.98;;;;;;;22.66;66.88;101486.59;5258332;28;20086;-68
2023/07/14 08:49:52;;;;;;;6.38;2.33;;;;;;;22.78;62.59;101467.16;5261793;28;20428;-67
2023/07/14 08:52:33;;;;;;;6.15;2.50;;;;;;;22.92;63.55;101472.59;5258321;28;20021;-66
2023/07/14 08:55:12;;;;;;;4.85;1.92;;;;;;;23.05;61.26;101484.22;5247829;28;20070;-68
2023/07/14 08:57:56;;;;;;;4.35;2.38;;;;;;;23.23;60.62;101473.00;5246568;28;20028;-67
2023/07/14 09:00:36;;;;;;;3.00;2.00;;;;;;;23.28;59.51;101462.53;5260797;28;20416;-67
2023/07/14 09:03:15;;;;;;;4.80;2.28;;;;;;;23.57;58.82;101455.25;5263275;28;20033;-66
2023/07/14 09:05:58;;;;;;;3.13;2.05;;;;;;;23.56;58.61;101456.25;5264162;28;20035;-68
2023/07/14 09:08:29;;;;;;;3.85;2.20;;;;;;;23.37;57.60;101460.50;5261733;28;20420;-67
2023/07/14 09:11:12;;;;;;;3.00;1.90;;;;;;;23.63;56.73;101465.13;5245080;28;20059;-68
2023/07/14 09:14:08;;;;;;;4.80;2.40;;;;;;;23.98;58.64;101451.66;5262069;28;20520;-68
2023/07/14 09:16:59;;;;;;;4.65;2.40;;;;;;;24.10;56.35;101451.91;5256437;28;20377;-68
2023/07/14 09:19:57;;;;;;;4.13;2.45;;;;;;;24.36;57.25;101443.88;5260614;28;20112;-67
2023/07/14 09:22:45;;;;;;;4.20;2.55;;;;;;;24.42;55.95;101442.22;5259388;28;20577;-68
2023/07/14 09:25:42;;;;;;;5.78;2.42;;;;;;;24.63;55.63;101441.19;5264893;28;20469;-68
2023/07/14 09:28:37;;;;;;;3.78;2.20;;;;;;;24.61;56.21;101433.34;5257748;28;20089;-68
2023/07/14 09:31:44;;;;;;;3.95;2.15;;;;;;;24.87;55.08;101429.78;5260156;28;20394;-68
2023/07/14 09:34:32;;;;;;;4.05;1.90;;;;;;;24.81;55.34;101424.44;5253507;28;20040;-67
2023/07/14 09:37:19;;;;;;;3.88;2.40;;;;;;;24.95;53.75;101423.38;5264269;28;20048;-67
2023/07/14 09:40:00;;;;;;;4.35;2.03;;;;;;;24.94;53.92;101430.59;5266623;28;20051;-68
2023/07/14 09:42:39;;;;;;;3.70;2.20;;;;;;;25.10;53.02;101420.47;5264016;28;20032;-68
2023/07/14 09:45:19;;;;;;;5.85;2.38;;;;;;;25.17;51.87;101422.09;5263067;28;20090;-67
2023/07/14 09:47:58;;;;;;;4.47;2.20;;;;;;;25.11;51.96;101419.44;5259168;28;20020;-66
2023/07/14 09:50:34;;;;;;;3.63;2.13;;;;;;;24.89;50.94;101416.16;5263257;28;20036;-67
2023/07/14 09:53:07;;;;;;;3.88;2.10;;;;;;;24.76;50.76;101417.03;5268207;28;20033;-68
2023/07/14 09:55:52;;;;;;;3.70;2.15;;;;;;;25.13;52.04;101412.00;5266075;28;20035;-66
2023/07/14 09:58:28;;;;;;;4.10;2.05;;;;;;;24.91;51.86;101414.13;5262429;28;20052;-67
2023/07/14 10:01:12;;;;;;;4.45;2.75;;;;;;;25.09;52.32;101405.41;5267150;28;20077;-67
2023/07/14 10:03:54;;;;;;;3.15;1.90;;;;;;;25.10;51.29;101401.69;5265184;28;20051;-68
2023/07/14 10:06:28;;;;;;;6.40;2.42;;;;;;;25.04;51.78;101402.50;5245020;28;20036;-67
2023/07/14 10:09:10;;;;;;;5.00;2.15;;;;;;;25.16;52.29;101392.81;5262015;28;20121;-67
2023/07/14 10:11:50;;;;;;;4.72;2.10;;;;;;;25.09;52.10;101386.63;5264719;28;20032;-68
2023/07/14 10:14:35;;;;;;;3.63;2.10;;;;;;;24.97;52.27;101376.56;5237894;28;20052;-68
2023/07/14 10:17:23;;;;;;;5.15;2.10;;;;;;;25.34;51.33;101371.44;5263087;28;20029;-69
2023/07/14 10:19:56;;;;;;;3.67;2.20;;;;;;;25.13;51.83;101369.09;5262820;28;20092;-69
2023/07/14 10:22:31;;;;;;;4.57;1.95;;;;;;;25.36;51.58;101366.72;5265599;28;20036;-68
2023/07/14 10:25:03;;;;;;;3.38;1.98;;;;;;;25.43;51.69;101364.81;5267512;28;20028;-69
2023/07/14 10:27:38;;;;;;;6.10;2.05;;;;;;;25.72;48.80;101365.22;5246196;28;20067;-68
2023/07/14 10:30:36;;;;;;;4.35;2.35;;;;;;;26.20;48.00;101359.28;5260359;28;20025;-68
2023/07/14 10:33:25;;;;;;;5.50;2.30;;;;;;;26.29;47.89;101349.91;5246516;28;20162;-68
2023/07/14 10:36:07;;;;;;;5.28;2.30;;;;;;;26.23;47.10;101341.91;5261281;28;20036;-68
2023/07/14 10:38:48;;;;;;;3.90;1.85;;;;;;;26.41;45.98;101344.63;5262624;28;20024;-68
2023/07/14 10:41:22;;;;;;;3.80;2.20;;;;;;;26.32;45.24;101332.50;5248422;28;20037;-68
2023/07/14 10:43:58;;;;;;;3.55;1.90;;;;;;;26.36;44.91;101331.03;5264582;28;20025;-68
2023/07/14 10:46:40;;;;;;;4.07;1.90;;;;;;;26.70;45.76;101324.25;5268333;28;20031;-68
2023/07/14 10:49:14;;;;;;;4.97;1.70;;;;;;;26.59;43.28;101322.31;5266506;28;20025;-69
2023/07/14 10:51:55;;;;;;;4.68;2.00;;;;;;;26.35;43.58;101329.38;5241338;28;20033;-69
2023/07/14 10:54:46;;;;;;;2.90;1.70;;;;;;;26.69;44.68;101322.63;5260541;28;20040;-68
2023/07/14 10:57:44;;;;;;;5.10;2.30;;;;;;;26.87;44.29;101322.59;5244257;28;20367;-68
2023/07/14 11:00:50;;;;;;;3.88;2.03;;;;;;;26.49;44.37;101325.56;5259387;28;20028;-68
2023/07/14 11:03:32;;;;;;;4.13;2.00;;;;;;;26.31;44.57;101318.25;5259288;28;20043;-69
2023/07/14 11:06:13;;;;;;;3.00;2.03;;;;;;;26.36;44.76;101313.03;5262197;28;20024;-69
2023/07/14 11:08:51;;;;;;;5.05;1.60;;;;;;;26.29;44.14;101308.78;5262078;28;20040;-68
2023/07/14 11:11:33;;;;;;;4.30;1.98;;;;;;;26.63;44.89;101308.22;5259326;28;20059;-69
2023/07/14 11:14:23;;;;;;;3.95;2.00;;;;;;;26.40;44.37;101303.50;5262249;28;20076;-69
2023/07/14 11:17:01;;;;;;;4.18;2.20;;;;;;;26.64;43.61;101277.63;5261892;28;20418;-68
2023/07/14 11:19:46;;;;;;;5.72;2.22;;;;;;;26.55;42.60;101278.94;5240389;28;20064;-69
2023/07/14 11:22:42;;;;;;;4.15;1.67;;;;;;;27.00;43.69;101280.44;5261829;28;20130;-69
2023/07/14 11:25:20;;;;;;;3.55;2.05;;;;;;;26.81;43.50;101272.41;5263088;28;20036;-69
2023/07/14 11:28:01;;;;;;;4.47;2.33;;;;;;;26.98;43.69;101269.94;5262428;28;20386;-69
2023/07/14 11:30:40;;;;;;;3.67;1.92;;;;;;;27.05;42.84;101276.03;5259600;28;20029;-70
2023/07/14 11:33:19;;;;;;;3.28;2.00;;;;;;;26.93;42.88;101275.16;5257333;28;20035;-68
2023/07/14 11:36:18;;;;;;;4.68;2.10;;;;;;;27.47;43.53;101267.16;5260686;28;20021;-69
2023/07/14 11:39:05;;;;;;;5.25;1.90;;;;;;;27.33;42.99;101270.06;5243123;28;20032;-69
2023/07/14 11:41:37;;;;;;;4.60;1.90;;;;;;;27.46;42.29;101265.50;5258604;28;20029;-69
2023/07/14 11:44:13;;;;;;;4.37;1.97;;;;;;;27.64;41.55;101263.53;5261576;28;20540;-69
2023/07/14 11:46:45;;;;;;;3.30;2.05;;;;;;;27.61;41.66;101249.72;5258189;28;21026;-69
2023/07/14 11:49:34;;;;;;;6.07;2.28;;;;;;;27.92;42.58;101239.66;5257552;28;20354;-69
2023/07/14 11:52:19;;;;;;;5.15;2.20;;;;;;;27.81;42.30;101236.78;5261478;28;20028;-69
2023/07/14 11:55:02;;;;;;;4.47;2.20;;;;;;;28.28;41.08;101239.38;5257308;28;20484;-68
2023/07/14 11:57:47;;;;;;;;;;;;;;;29.01;40.06;101235.16;5262007;28;20489;-68
2023/07/14 12:00:24;;;;;;;3.50;1.92;;;;;;;28.00;38.61;101237.47;5260299;28;19966;-69